sensor_id;sensor_type;location;lat;lon;timestamp;P1;durP1;ratioP1;P2;durP2;ratioP2
40995;SDS011;26723;57.478;12.066;2022-08-07T00:01:15;1.83;;;1.10;;
40995;SDS011;26723;57.478;12.066;2022-08-07T00:04:45;1.48;;;1.10;;
40995;SDS011;26723;57.478;12.066;2022-08-07T00:07:54;2.42;;;1.10;;
40995;SDS011;26723;57.478;12.066;2022-08-07T00:11:05;2.10;;;1.27;;
40995;SDS011;26723;57.478;12.066;2022-08-07T00:14:15;1.83;;;1.00;;
40995;SDS011;26723;57.478;12.066;2022-08-07T00:17:30;2.08;;;1.25;;
40995;SDS011;26723;57.478;12.066;2022-08-07T00:20:42;2.88;;;1.05;;
40995;SDS011;26723;57.478;12.066;2022-08-07T00:23:53;1.35;;;1.10;;
40995;SDS011;26723;57.478;12.066;2022-08-07T00:27:02;1.48;;;1.02;;
40995;SDS011;26723;57.478;12.066;2022-08-07T00:30:13;1.00;;;0.90;;
40995;SDS011;26723;57.478;12.066;2022-08-07T00:33:34;1.63;;;1.30;;
40995;SDS011;26723;57.478;12.066;2022-08-07T00:36:44;2.08;;;1.20;;
40995;SDS011;26723;57.478;12.066;2022-08-07T00:39:53;1.75;;;1.20;;
40995;SDS011;26723;57.478;12.066;2022-08-07T00:43:01;2.92;;;1.45;;
40995;SDS011;26723;57.478;12.066;2022-08-07T00:46:15;1.63;;;1.40;;
40995;SDS011;26723;57.478;12.066;2022-08-07T00:49:23;3.15;;;1.40;;
40995;SDS011;26723;57.478;12.066;2022-08-07T00:52:53;1.55;;;1.45;;
40995;SDS011;26723;57.478;12.066;2022-08-07T00:56:01;1.97;;;1.30;;
40995;SDS011;26723;57.478;12.066;2022-08-07T00:59:19;2.67;;;1.45;;
40995;SDS011;26723;57.478;12.066;2022-08-07T01:02:41;1.58;;;1.20;;
40995;SDS011;26723;57.478;12.066;2022-08-07T01:05:51;2.00;;;1.30;;
40995;SDS011;26723;57.478;12.066;2022-08-07T01:09:03;2.30;;;1.45;;
40995;SDS011;26723;57.478;12.066;2022-08-07T01:12:13;2.33;;;1.27;;
40995;SDS011;26723;57.478;12.066;2022-08-07T01:15:36;2.10;;;1.70;;
40995;SDS011;26723;57.478;12.066;2022-08-07T01:19:04;1.25;;;1.25;;
40995;SDS011;26723;57.478;12.066;2022-08-07T01:22:27;2.33;;;1.50;;
40995;SDS011;26723;57.478;12.066;2022-08-07T01:25:37;2.10;;;1.20;;
40995;SDS011;26723;57.478;12.066;2022-08-07T01:29:02;1.40;;;1.30;;
40995;SDS011;26723;57.478;12.066;2022-08-07T01:32:13;2.33;;;1.30;;
40995;SDS011;26723;57.478;12.066;2022-08-07T01:35:25;1.70;;;1.30;;
40995;SDS011;26723;57.478;12.066;2022-08-07T01:38:55;2.15;;;1.40;;
40995;SDS011;26723;57.478;12.066;2022-08-07T01:42:05;2.28;;;1.40;;
40995;SDS011;26723;57.478;12.066;2022-08-07T01:45:33;1.73;;;1.33;;
40995;SDS011;26723;57.478;12.066;2022-08-07T01:48:50;2.57;;;1.90;;
40995;SDS011;26723;57.478;12.066;2022-08-07T01:52:02;2.35;;;1.70;;
40995;SDS011;26723;57.478;12.066;2022-08-07T01:55:16;1.38;;;1.27;;
40995;SDS011;26723;57.478;12.066;2022-08-07T01:58:33;1.55;;;1.48;;
40995;SDS011;26723;57.478;12.066;2022-08-07T02:01:52;1.80;;;1.48;;
40995;SDS011;26723;57.478;12.066;2022-08-07T02:05:12;2.35;;;2.03;;
40995;SDS011;26723;57.478;12.066;2022-08-07T02:08:45;1.98;;;1.35;;
40995;SDS011;26723;57.478;12.066;2022-08-07T02:12:04;2.15;;;1.83;;
40995;SDS011;26723;57.478;12.066;2022-08-07T02:15:29;1.73;;;1.63;;
40995;SDS011;26723;57.478;12.066;2022-08-07T02:18:39;1.30;;;1.30;;
40995;SDS011;26723;57.478;12.066;2022-08-07T02:21:52;1.60;;;1.50;;
40995;SDS011;26723;57.478;12.066;2022-08-07T02:25:05;1.88;;;1.58;;
40995;SDS011;26723;57.478;12.066;2022-08-07T02:28:28;1.60;;;1.50;;
40995;SDS011;26723;57.478;12.066;2022-08-07T02:31:42;1.73;;;1.60;;
40995;SDS011;26723;57.478;12.066;2022-08-07T02:34:54;2.67;;;1.70;;
40995;SDS011;26723;57.478;12.066;2022-08-07T02:38:05;1.70;;;1.60;;
40995;SDS011;26723;57.478;12.066;2022-08-07T02:41:17;3.88;;;1.70;;
40995;SDS011;26723;57.478;12.066;2022-08-07T02:44:31;1.58;;;1.48;;
40995;SDS011;26723;57.478;12.066;2022-08-07T02:47:44;1.63;;;1.50;;
40995;SDS011;26723;57.478;12.066;2022-08-07T02:50:58;2.10;;;2.00;;
40995;SDS011;26723;57.478;12.066;2022-08-07T02:54:12;1.88;;;1.73;;
40995;SDS011;26723;57.478;12.066;2022-08-07T02:57:21;1.75;;;1.65;;
40995;SDS011;26723;57.478;12.066;2022-08-07T03:00:38;2.83;;;1.83;;
40995;SDS011;26723;57.478;12.066;2022-08-07T03:03:55;2.43;;;1.70;;
40995;SDS011;26723;57.478;12.066;2022-08-07T03:07:08;1.87;;;1.70;;
40995;SDS011;26723;57.478;12.066;2022-08-07T03:10:20;1.88;;;1.70;;
40995;SDS011;26723;57.478;12.066;2022-08-07T03:13:31;1.83;;;1.70;;
40995;SDS011;26723;57.478;12.066;2022-08-07T03:16:56;2.38;;;1.73;;
40995;SDS011;26723;57.478;12.066;2022-08-07T03:20:10;2.67;;;1.60;;
40995;SDS011;26723;57.478;12.066;2022-08-07T03:23:19;1.70;;;1.60;;
40995;SDS011;26723;57.478;12.066;2022-08-07T03:26:49;2.05;;;1.23;;
40995;SDS011;26723;57.478;12.066;2022-08-07T03:30:04;1.67;;;1.57;;
40995;SDS011;26723;57.478;12.066;2022-08-07T03:33:18;1.85;;;1.70;;
40995;SDS011;26723;57.478;12.066;2022-08-07T03:36:28;2.42;;;1.98;;
40995;SDS011;26723;57.478;12.066;2022-08-07T03:39:37;2.92;;;1.92;;
40995;SDS011;26723;57.478;12.066;2022-08-07T03:43:06;1.70;;;1.60;;
40995;SDS011;26723;57.478;12.066;2022-08-07T03:46:22;2.33;;;1.77;;
40995;SDS011;26723;57.478;12.066;2022-08-07T03:49:34;1.70;;;1.60;;
40995;SDS011;26723;57.478;12.066;2022-08-07T03:52:44;1.65;;;1.55;;
40995;SDS011;26723;57.478;12.066;2022-08-07T03:55:56;2.20;;;1.58;;
40995;SDS011;26723;57.478;12.066;2022-08-07T03:59:13;2.07;;;1.70;;
40995;SDS011;26723;57.478;12.066;2022-08-07T04:02:26;2.08;;;1.85;;
40995;SDS011;26723;57.478;12.066;2022-08-07T04:05:37;1.83;;;1.73;;
40995;SDS011;26723;57.478;12.066;2022-08-07T04:08:57;1.88;;;1.77;;
40995;SDS011;26723;57.478;12.066;2022-08-07T04:12:08;1.98;;;1.70;;
40995;SDS011;26723;57.478;12.066;2022-08-07T04:15:35;2.95;;;1.77;;
40995;SDS011;26723;57.478;12.066;2022-08-07T04:18:44;1.63;;;1.50;;
40995;SDS011;26723;57.478;12.066;2022-08-07T04:22:08;2.90;;;1.48;;
40995;SDS011;26723;57.478;12.066;2022-08-07T04:25:23;1.60;;;1.50;;
40995;SDS011;26723;57.478;12.066;2022-08-07T04:28:36;1.58;;;1.48;;
40995;SDS011;26723;57.478;12.066;2022-08-07T04:31:47;1.87;;;1.77;;
40995;SDS011;26723;57.478;12.066;2022-08-07T04:35:15;3.38;;;1.92;;
40995;SDS011;26723;57.478;12.066;2022-08-07T04:38:29;1.60;;;1.50;;
40995;SDS011;26723;57.478;12.066;2022-08-07T04:41:39;2.13;;;1.92;;
40995;SDS011;26723;57.478;12.066;2022-08-07T04:44:56;1.63;;;1.50;;
40995;SDS011;26723;57.478;12.066;2022-08-07T04:48:16;1.73;;;1.60;;
40995;SDS011;26723;57.478;12.066;2022-08-07T04:51:33;1.77;;;1.40;;
40995;SDS011;26723;57.478;12.066;2022-08-07T04:54:53;2.08;;;1.73;;
40995;SDS011;26723;57.478;12.066;2022-08-07T04:58:30;2.28;;;1.67;;
40995;SDS011;26723;57.478;12.066;2022-08-07T05:02:06;1.83;;;1.73;;
40995;SDS011;26723;57.478;12.066;2022-08-07T05:05:27;2.03;;;1.50;;
40995;SDS011;26723;57.478;12.066;2022-08-07T05:09:03;1.80;;;1.70;;
40995;SDS011;26723;57.478;12.066;2022-08-07T05:12:22;1.45;;;1.35;;
40995;SDS011;26723;57.478;12.066;2022-08-07T05:15:40;1.50;;;1.42;;
40995;SDS011;26723;57.478;12.066;2022-08-07T05:18:52;1.48;;;1.38;;
40995;SDS011;26723;57.478;12.066;2022-08-07T05:22:07;2.78;;;1.65;;
40995;SDS011;26723;57.478;12.066;2022-08-07T05:25:20;1.75;;;1.63;;
40995;SDS011;26723;57.478;12.066;2022-08-07T05:28:52;2.08;;;1.60;;
40995;SDS011;26723;57.478;12.066;2022-08-07T05:32:06;1.52;;;1.40;;
40995;SDS011;26723;57.478;12.066;2022-08-07T05:35:16;1.50;;;1.40;;
40995;SDS011;26723;57.478;12.066;2022-08-07T05:38:39;1.75;;;1.50;;
40995;SDS011;26723;57.478;12.066;2022-08-07T05:42:09;1.90;;;1.80;;
40995;SDS011;26723;57.478;12.066;2022-08-07T05:45:23;1.90;;;1.60;;
40995;SDS011;26723;57.478;12.066;2022-08-07T05:48:52;1.67;;;1.58;;
40995;SDS011;26723;57.478;12.066;2022-08-07T05:52:08;1.95;;;1.85;;
40995;SDS011;26723;57.478;12.066;2022-08-07T05:55:19;1.63;;;1.52;;
40995;SDS011;26723;57.478;12.066;2022-08-07T05:58:28;1.73;;;1.63;;
40995;SDS011;26723;57.478;12.066;2022-08-07T06:01:46;1.50;;;1.40;;
40995;SDS011;26723;57.478;12.066;2022-08-07T06:05:00;1.65;;;1.55;;
40995;SDS011;26723;57.478;12.066;2022-08-07T06:08:11;1.38;;;1.38;;
40995;SDS011;26723;57.478;12.066;2022-08-07T06:11:37;1.60;;;1.50;;
40995;SDS011;26723;57.478;12.066;2022-08-07T06:14:47;1.73;;;1.63;;
40995;SDS011;26723;57.478;12.066;2022-08-07T06:17:58;1.60;;;1.50;;
40995;SDS011;26723;57.478;12.066;2022-08-07T06:21:06;1.40;;;1.40;;
40995;SDS011;26723;57.478;12.066;2022-08-07T06:24:36;2.90;;;1.73;;
40995;SDS011;26723;57.478;12.066;2022-08-07T06:28:04;1.70;;;1.60;;
40995;SDS011;26723;57.478;12.066;2022-08-07T06:31:14;1.80;;;1.55;;
40995;SDS011;26723;57.478;12.066;2022-08-07T06:34:24;1.70;;;1.60;;
40995;SDS011;26723;57.478;12.066;2022-08-07T06:37:37;2.00;;;1.90;;
40995;SDS011;26723;57.478;12.066;2022-08-07T06:40:50;1.67;;;1.63;;
40995;SDS011;26723;57.478;12.066;2022-08-07T06:44:03;1.98;;;1.88;;
40995;SDS011;26723;57.478;12.066;2022-08-07T06:47:17;2.25;;;2.13;;
40995;SDS011;26723;57.478;12.066;2022-08-07T06:50:29;2.20;;;2.00;;
40995;SDS011;26723;57.478;12.066;2022-08-07T06:53:42;2.30;;;2.20;;
40995;SDS011;26723;57.478;12.066;2022-08-07T06:57:13;2.15;;;2.05;;
40995;SDS011;26723;57.478;12.066;2022-08-07T07:00:23;2.40;;;2.20;;
40995;SDS011;26723;57.478;12.066;2022-08-07T07:03:33;2.28;;;2.10;;
40995;SDS011;26723;57.478;12.066;2022-08-07T07:06:55;2.55;;;2.35;;
40995;SDS011;26723;57.478;12.066;2022-08-07T07:10:07;2.10;;;1.90;;
40995;SDS011;26723;57.478;12.066;2022-08-07T07:13:17;2.30;;;2.10;;
40995;SDS011;26723;57.478;12.066;2022-08-07T07:16:49;2.28;;;2.10;;
40995;SDS011;26723;57.478;12.066;2022-08-07T07:19:59;2.25;;;2.15;;
40995;SDS011;26723;57.478;12.066;2022-08-07T07:23:13;2.50;;;2.30;;
40995;SDS011;26723;57.478;12.066;2022-08-07T07:26:42;2.72;;;2.50;;
40995;SDS011;26723;57.478;12.066;2022-08-07T07:29:57;2.83;;;2.63;;
40995;SDS011;26723;57.478;12.066;2022-08-07T07:33:14;2.50;;;2.33;;
40995;SDS011;26723;57.478;12.066;2022-08-07T07:36:25;2.58;;;2.47;;
40995;SDS011;26723;57.478;12.066;2022-08-07T07:39:39;2.92;;;2.45;;
40995;SDS011;26723;57.478;12.066;2022-08-07T07:42:59;2.83;;;2.63;;
40995;SDS011;26723;57.478;12.066;2022-08-07T07:46:23;3.03;;;2.35;;
40995;SDS011;26723;57.478;12.066;2022-08-07T07:49:54;3.63;;;2.53;;
40995;SDS011;26723;57.478;12.066;2022-08-07T07:53:23;2.95;;;2.75;;
40995;SDS011;26723;57.478;12.066;2022-08-07T07:56:41;3.42;;;2.92;;
40995;SDS011;26723;57.478;12.066;2022-08-07T07:59:52;2.70;;;2.50;;
40995;SDS011;26723;57.478;12.066;2022-08-07T08:03:04;2.65;;;2.45;;
40995;SDS011;26723;57.478;12.066;2022-08-07T08:06:22;2.85;;;2.65;;
40995;SDS011;26723;57.478;12.066;2022-08-07T08:09:32;3.67;;;2.92;;
40995;SDS011;26723;57.478;12.066;2022-08-07T08:13:02;3.42;;;2.90;;
40995;SDS011;26723;57.478;12.066;2022-08-07T08:16:17;3.28;;;2.97;;
40995;SDS011;26723;57.478;12.066;2022-08-07T08:19:30;3.40;;;3.03;;
40995;SDS011;26723;57.478;12.066;2022-08-07T08:23:00;2.97;;;2.78;;
40995;SDS011;26723;57.478;12.066;2022-08-07T08:26:33;3.40;;;3.10;;
40995;SDS011;26723;57.478;12.066;2022-08-07T08:30:01;3.20;;;3.00;;
40995;SDS011;26723;57.478;12.066;2022-08-07T08:33:12;4.03;;;3.72;;
40995;SDS011;26723;57.478;12.066;2022-08-07T08:36:28;4.13;;;3.83;;
40995;SDS011;26723;57.478;12.066;2022-08-07T08:39:39;4.43;;;3.97;;
40995;SDS011;26723;57.478;12.066;2022-08-07T08:43:07;3.83;;;3.53;;
40995;SDS011;26723;57.478;12.066;2022-08-07T08:46:25;4.20;;;3.90;;
40995;SDS011;26723;57.478;12.066;2022-08-07T08:49:45;3.90;;;3.60;;
40995;SDS011;26723;57.478;12.066;2022-08-07T08:53:13;4.50;;;4.03;;
40995;SDS011;26723;57.478;12.066;2022-08-07T08:56:26;4.25;;;3.90;;
40995;SDS011;26723;57.478;12.066;2022-08-07T08:59:40;4.38;;;4.07;;
40995;SDS011;26723;57.478;12.066;2022-08-07T09:02:57;4.85;;;4.45;;
40995;SDS011;26723;57.478;12.066;2022-08-07T09:06:16;5.40;;;4.10;;
40995;SDS011;26723;57.478;12.066;2022-08-07T09:09:41;4.43;;;4.03;;
40995;SDS011;26723;57.478;12.066;2022-08-07T09:13:04;4.85;;;4.45;;
40995;SDS011;26723;57.478;12.066;2022-08-07T09:16:21;4.28;;;3.88;;
40995;SDS011;26723;57.478;12.066;2022-08-07T09:19:51;4.68;;;4.30;;
40995;SDS011;26723;57.478;12.066;2022-08-07T09:23:06;4.65;;;4.25;;
40995;SDS011;26723;57.478;12.066;2022-08-07T09:26:42;4.63;;;4.32;;
40995;SDS011;26723;57.478;12.066;2022-08-07T09:30:17;5.30;;;4.57;;
40995;SDS011;26723;57.478;12.066;2022-08-07T09:33:40;4.70;;;4.30;;
40995;SDS011;26723;57.478;12.066;2022-08-07T09:37:05;4.50;;;4.10;;
40995;SDS011;26723;57.478;12.066;2022-08-07T09:40:21;4.43;;;4.13;;
40995;SDS011;26723;57.478;12.066;2022-08-07T09:43:51;4.00;;;3.80;;
40995;SDS011;26723;57.478;12.066;2022-08-07T09:47:14;4.20;;;3.90;;
40995;SDS011;26723;57.478;12.066;2022-08-07T09:50:53;4.40;;;4.10;;
40995;SDS011;26723;57.478;12.066;2022-08-07T09:54:22;4.50;;;4.20;;
40995;SDS011;26723;57.478;12.066;2022-08-07T10:01:27;4.88;;;4.53;;
40995;SDS011;26723;57.478;12.066;2022-08-07T10:05:06;4.22;;;3.92;;
40995;SDS011;26723;57.478;12.066;2022-08-07T10:08:58;4.30;;;4.00;;
40995;SDS011;26723;57.478;12.066;2022-08-07T10:12:32;3.60;;;3.40;;
40995;SDS011;26723;57.478;12.066;2022-08-07T10:16:00;3.67;;;3.47;;
40995;SDS011;26723;57.478;12.066;2022-08-07T10:19:24;3.92;;;3.63;;
40995;SDS011;26723;57.478;12.066;2022-08-07T10:26:25;4.40;;;4.10;;
40995;SDS011;26723;57.478;12.066;2022-08-07T10:29:51;4.22;;;3.92;;
40995;SDS011;26723;57.478;12.066;2022-08-07T10:33:20;4.20;;;3.90;;
40995;SDS011;26723;57.478;12.066;2022-08-07T10:36:58;4.53;;;4.22;;
40995;SDS011;26723;57.478;12.066;2022-08-07T10:40:18;4.60;;;4.20;;
40995;SDS011;26723;57.478;12.066;2022-08-07T10:43:38;4.50;;;4.20;;
40995;SDS011;26723;57.478;12.066;2022-08-07T10:46:53;4.82;;;4.53;;
40995;SDS011;26723;57.478;12.066;2022-08-07T10:50:12;4.88;;;4.47;;
40995;SDS011;26723;57.478;12.066;2022-08-07T10:53:33;4.60;;;4.30;;
40995;SDS011;26723;57.478;12.066;2022-08-07T10:56:53;4.43;;;4.13;;
40995;SDS011;26723;57.478;12.066;2022-08-07T11:00:14;4.53;;;4.22;;
40995;SDS011;26723;57.478;12.066;2022-08-07T11:03:47;5.15;;;4.65;;
40995;SDS011;26723;57.478;12.066;2022-08-07T11:07:21;5.60;;;4.90;;
40995;SDS011;26723;57.478;12.066;2022-08-07T11:11:02;5.40;;;5.00;;
40995;SDS011;26723;57.478;12.066;2022-08-07T11:14:16;4.88;;;4.57;;
40995;SDS011;26723;57.478;12.066;2022-08-07T11:17:51;4.53;;;4.13;;
40995;SDS011;26723;57.478;12.066;2022-08-07T11:21:13;4.63;;;4.32;;
40995;SDS011;26723;57.478;12.066;2022-08-07T11:24:48;4.65;;;4.35;;
40995;SDS011;26723;57.478;12.066;2022-08-07T11:28:13;5.22;;;4.82;;
40995;SDS011;26723;57.478;12.066;2022-08-07T11:31:26;4.82;;;4.50;;
40995;SDS011;26723;57.478;12.066;2022-08-07T11:34:43;4.72;;;4.32;;
40995;SDS011;26723;57.478;12.066;2022-08-07T11:37:57;4.78;;;4.38;;
40995;SDS011;26723;57.478;12.066;2022-08-07T11:41:20;4.78;;;4.38;;
40995;SDS011;26723;57.478;12.066;2022-08-07T11:44:52;4.85;;;4.53;;
40995;SDS011;26723;57.478;12.066;2022-08-07T11:48:09;4.78;;;4.47;;
40995;SDS011;26723;57.478;12.066;2022-08-07T11:51:37;4.85;;;4.55;;
40995;SDS011;26723;57.478;12.066;2022-08-07T11:55:10;4.70;;;4.30;;
40995;SDS011;26723;57.478;12.066;2022-08-07T11:58:48;4.88;;;4.53;;
40995;SDS011;26723;57.478;12.066;2022-08-07T12:02:10;4.63;;;4.32;;
40995;SDS011;26723;57.478;12.066;2022-08-07T12:05:39;4.32;;;3.97;;
40995;SDS011;26723;57.478;12.066;2022-08-07T12:08:57;4.55;;;4.15;;
40995;SDS011;26723;57.478;12.066;2022-08-07T12:12:15;3.80;;;3.58;;
40995;SDS011;26723;57.478;12.066;2022-08-07T12:15:30;4.43;;;4.03;;
40995;SDS011;26723;57.478;12.066;2022-08-07T12:19:04;5.65;;;4.13;;
40995;SDS011;26723;57.478;12.066;2022-08-07T12:22:27;3.90;;;3.60;;
40995;SDS011;26723;57.478;12.066;2022-08-07T12:26:02;4.18;;;3.88;;
40995;SDS011;26723;57.478;12.066;2022-08-07T12:29:37;3.53;;;3.33;;
40995;SDS011;26723;57.478;12.066;2022-08-07T12:32:57;3.40;;;3.10;;
40995;SDS011;26723;57.478;12.066;2022-08-07T12:36:24;3.28;;;3.08;;
40995;SDS011;26723;57.478;12.066;2022-08-07T12:39:39;3.20;;;3.00;;
40995;SDS011;26723;57.478;12.066;2022-08-07T12:42:58;3.67;;;3.38;;
40995;SDS011;26723;57.478;12.066;2022-08-07T12:46:21;2.90;;;2.70;;
40995;SDS011;26723;57.478;12.066;2022-08-07T12:49:41;3.08;;;2.85;;
40995;SDS011;26723;57.478;12.066;2022-08-07T12:52:59;3.45;;;3.25;;
40995;SDS011;26723;57.478;12.066;2022-08-07T12:56:24;3.25;;;3.05;;
40995;SDS011;26723;57.478;12.066;2022-08-07T12:59:36;3.20;;;3.00;;
40995;SDS011;26723;57.478;12.066;2022-08-07T13:03:09;3.35;;;3.15;;
40995;SDS011;26723;57.478;12.066;2022-08-07T13:06:52;3.70;;;3.40;;
40995;SDS011;26723;57.478;12.066;2022-08-07T13:10:16;3.40;;;3.20;;
40995;SDS011;26723;57.478;12.066;2022-08-07T13:13:50;4.03;;;3.72;;
40995;SDS011;26723;57.478;12.066;2022-08-07T13:17:09;3.88;;;3.65;;
40995;SDS011;26723;57.478;12.066;2022-08-07T13:20:29;4.00;;;3.45;;
40995;SDS011;26723;57.478;12.066;2022-08-07T13:23:51;3.30;;;3.10;;
40995;SDS011;26723;57.478;12.066;2022-08-07T13:27:12;3.22;;;3.03;;
40995;SDS011;26723;57.478;12.066;2022-08-07T13:30:26;3.53;;;3.22;;
40995;SDS011;26723;57.478;12.066;2022-08-07T13:33:49;3.58;;;3.30;;
40995;SDS011;26723;57.478;12.066;2022-08-07T13:37:28;3.67;;;3.38;;
40995;SDS011;26723;57.478;12.066;2022-08-07T13:40:45;3.75;;;3.45;;
40995;SDS011;26723;57.478;12.066;2022-08-07T13:44:02;3.75;;;3.50;;
40995;SDS011;26723;57.478;12.066;2022-08-07T13:47:17;3.78;;;3.47;;
40995;SDS011;26723;57.478;12.066;2022-08-07T13:50:30;3.20;;;3.00;;
40995;SDS011;26723;57.478;12.066;2022-08-07T13:54:01;3.50;;;3.20;;
40995;SDS011;26723;57.478;12.066;2022-08-07T13:57:24;3.20;;;3.00;;
40995;SDS011;26723;57.478;12.066;2022-08-07T14:00:43;3.65;;;3.35;;
40995;SDS011;26723;57.478;12.066;2022-08-07T14:04:00;3.47;;;3.20;;
40995;SDS011;26723;57.478;12.066;2022-08-07T14:07:22;3.53;;;3.22;;
40995;SDS011;26723;57.478;12.066;2022-08-07T14:10:37;3.20;;;3.00;;
40995;SDS011;26723;57.478;12.066;2022-08-07T14:13:50;3.55;;;3.35;;
40995;SDS011;26723;57.478;12.066;2022-08-07T14:17:02;3.60;;;3.30;;
40995;SDS011;26723;57.478;12.066;2022-08-07T14:20:32;3.28;;;3.08;;
40995;SDS011;26723;57.478;12.066;2022-08-07T14:23:55;3.92;;;3.63;;
40995;SDS011;26723;57.478;12.066;2022-08-07T14:27:11;4.05;;;3.75;;
40995;SDS011;26723;57.478;12.066;2022-08-07T14:30:44;3.55;;;3.25;;
40995;SDS011;26723;57.478;12.066;2022-08-07T14:33:57;4.28;;;3.88;;
40995;SDS011;26723;57.478;12.066;2022-08-07T14:37:13;3.53;;;3.22;;
40995;SDS011;26723;57.478;12.066;2022-08-07T14:40:25;3.15;;;2.95;;
40995;SDS011;26723;57.478;12.066;2022-08-07T14:43:42;3.40;;;3.05;;
40995;SDS011;26723;57.478;12.066;2022-08-07T14:47:12;3.60;;;3.33;;
40995;SDS011;26723;57.478;12.066;2022-08-07T14:50:24;3.97;;;3.67;;
40995;SDS011;26723;57.478;12.066;2022-08-07T14:53:36;3.08;;;2.88;;
40995;SDS011;26723;57.478;12.066;2022-08-07T14:57:09;3.40;;;3.20;;
40995;SDS011;26723;57.478;12.066;2022-08-07T15:00:35;2.92;;;2.78;;
40995;SDS011;26723;57.478;12.066;2022-08-07T15:03:47;3.33;;;3.03;;
40995;SDS011;26723;57.478;12.066;2022-08-07T15:07:17;3.30;;;3.00;;
40995;SDS011;26723;57.478;12.066;2022-08-07T15:10:54;3.20;;;3.00;;
40995;SDS011;26723;57.478;12.066;2022-08-07T15:14:07;2.72;;;2.53;;
40995;SDS011;26723;57.478;12.066;2022-08-07T15:17:24;3.50;;;3.30;;
40995;SDS011;26723;57.478;12.066;2022-08-07T15:20:58;2.58;;;2.38;;
40995;SDS011;26723;57.478;12.066;2022-08-07T15:24:29;2.22;;;2.08;;
40995;SDS011;26723;57.478;12.066;2022-08-07T15:28:02;2.17;;;2.08;;
40995;SDS011;26723;57.478;12.066;2022-08-07T15:31:34;2.22;;;2.13;;
40995;SDS011;26723;57.478;12.066;2022-08-07T15:35:04;2.63;;;2.45;;
40995;SDS011;26723;57.478;12.066;2022-08-07T15:38:23;2.50;;;2.30;;
40995;SDS011;26723;57.478;12.066;2022-08-07T15:41:42;2.10;;;2.00;;
40995;SDS011;26723;57.478;12.066;2022-08-07T15:45:29;1.60;;;1.52;;
40995;SDS011;26723;57.478;12.066;2022-08-07T15:49:00;1.40;;;1.30;;
40995;SDS011;26723;57.478;12.066;2022-08-07T15:52:23;1.40;;;1.30;;
40995;SDS011;26723;57.478;12.066;2022-08-07T15:55:36;1.42;;;1.35;;
40995;SDS011;26723;57.478;12.066;2022-08-07T15:59:09;1.70;;;1.60;;
40995;SDS011;26723;57.478;12.066;2022-08-07T16:02:23;1.45;;;1.40;;
40995;SDS011;26723;57.478;12.066;2022-08-07T16:05:36;1.58;;;1.48;;
40995;SDS011;26723;57.478;12.066;2022-08-07T16:08:49;1.33;;;1.20;;
40995;SDS011;26723;57.478;12.066;2022-08-07T16:12:03;1.40;;;1.30;;
40995;SDS011;26723;57.478;12.066;2022-08-07T16:15:36;1.38;;;1.30;;
40995;SDS011;26723;57.478;12.066;2022-08-07T16:19:11;1.30;;;1.20;;
40995;SDS011;26723;57.478;12.066;2022-08-07T16:22:57;1.20;;;1.20;;
40995;SDS011;26723;57.478;12.066;2022-08-07T16:26:25;1.20;;;1.00;;
40995;SDS011;26723;57.478;12.066;2022-08-07T16:29:47;1.20;;;1.17;;
40995;SDS011;26723;57.478;12.066;2022-08-07T16:33:29;1.30;;;1.08;;
40995;SDS011;26723;57.478;12.066;2022-08-07T16:37:03;1.30;;;1.30;;
40995;SDS011;26723;57.478;12.066;2022-08-07T16:40:57;1.40;;;1.30;;
40995;SDS011;26723;57.478;12.066;2022-08-07T16:44:28;1.33;;;1.23;;
40995;SDS011;26723;57.478;12.066;2022-08-07T16:52:09;1.40;;;1.38;;
40995;SDS011;26723;57.478;12.066;2022-08-07T16:55:47;1.20;;;1.20;;
40995;SDS011;26723;57.478;12.066;2022-08-07T16:59:03;1.45;;;1.45;;
40995;SDS011;26723;57.478;12.066;2022-08-07T17:02:27;1.33;;;1.33;;
40995;SDS011;26723;57.478;12.066;2022-08-07T17:06:12;1.40;;;1.30;;
40995;SDS011;26723;57.478;12.066;2022-08-07T17:09:50;1.27;;;1.00;;
40995;SDS011;26723;57.478;12.066;2022-08-07T17:13:26;1.25;;;1.15;;
40995;SDS011;26723;57.478;12.066;2022-08-07T17:17:07;0.85;;;0.85;;
40995;SDS011;26723;57.478;12.066;2022-08-07T17:20:30;1.08;;;1.08;;
40995;SDS011;26723;57.478;12.066;2022-08-07T17:23:46;1.33;;;1.23;;
40995;SDS011;26723;57.478;12.066;2022-08-07T17:27:02;1.00;;;1.00;;
40995;SDS011;26723;57.478;12.066;2022-08-07T17:30:14;1.02;;;1.02;;
40995;SDS011;26723;57.478;12.066;2022-08-07T17:33:32;0.77;;;0.77;;
40995;SDS011;26723;57.478;12.066;2022-08-07T17:37:06;1.48;;;0.90;;
40995;SDS011;26723;57.478;12.066;2022-08-07T17:40:42;0.95;;;0.95;;
40995;SDS011;26723;57.478;12.066;2022-08-07T17:43:57;0.80;;;0.80;;
40995;SDS011;26723;57.478;12.066;2022-08-07T17:47:21;0.98;;;0.98;;
40995;SDS011;26723;57.478;12.066;2022-08-07T17:50:48;0.98;;;0.98;;
40995;SDS011;26723;57.478;12.066;2022-08-07T17:54:06;1.35;;;0.77;;
40995;SDS011;26723;57.478;12.066;2022-08-07T17:57:45;1.00;;;1.00;;
40995;SDS011;26723;57.478;12.066;2022-08-07T18:01:10;1.25;;;1.20;;
40995;SDS011;26723;57.478;12.066;2022-08-07T18:04:28;0.90;;;0.90;;
40995;SDS011;26723;57.478;12.066;2022-08-07T18:07:40;1.10;;;1.00;;
40995;SDS011;26723;57.478;12.066;2022-08-07T18:10:55;0.80;;;0.80;;
40995;SDS011;26723;57.478;12.066;2022-08-07T18:14:35;0.85;;;0.85;;
40995;SDS011;26723;57.478;12.066;2022-08-07T18:17:53;1.40;;;1.00;;
40995;SDS011;26723;57.478;12.066;2022-08-07T18:21:27;0.80;;;0.80;;
40995;SDS011;26723;57.478;12.066;2022-08-07T18:24:59;0.60;;;0.60;;
40995;SDS011;26723;57.478;12.066;2022-08-07T18:28:33;1.08;;;0.98;;
40995;SDS011;26723;57.478;12.066;2022-08-07T18:32:07;0.95;;;0.95;;
40995;SDS011;26723;57.478;12.066;2022-08-07T18:35:29;2.25;;;1.00;;
40995;SDS011;26723;57.478;12.066;2022-08-07T18:39:02;0.50;;;0.50;;
40995;SDS011;26723;57.478;12.066;2022-08-07T18:42:35;1.40;;;0.80;;
40995;SDS011;26723;57.478;12.066;2022-08-07T18:45:58;0.60;;;0.60;;
40995;SDS011;26723;57.478;12.066;2022-08-07T18:49:31;0.57;;;0.57;;
40995;SDS011;26723;57.478;12.066;2022-08-07T18:53:07;0.60;;;0.60;;
40995;SDS011;26723;57.478;12.066;2022-08-07T18:56:26;0.73;;;0.73;;
40995;SDS011;26723;57.478;12.066;2022-08-07T18:59:46;0.60;;;0.60;;
40995;SDS011;26723;57.478;12.066;2022-08-07T19:03:31;0.50;;;0.50;;
40995;SDS011;26723;57.478;12.066;2022-08-07T19:06:49;0.70;;;0.70;;
40995;SDS011;26723;57.478;12.066;2022-08-07T19:10:03;0.60;;;0.60;;
40995;SDS011;26723;57.478;12.066;2022-08-07T19:13:24;0.85;;;0.80;;
40995;SDS011;26723;57.478;12.066;2022-08-07T19:16:56;0.60;;;0.60;;
40995;SDS011;26723;57.478;12.066;2022-08-07T19:20:52;0.50;;;0.50;;
40995;SDS011;26723;57.478;12.066;2022-08-07T19:24:34;1.08;;;1.05;;
40995;SDS011;26723;57.478;12.066;2022-08-07T19:28:04;0.82;;;0.82;;
40995;SDS011;26723;57.478;12.066;2022-08-07T19:31:39;1.23;;;0.93;;
40995;SDS011;26723;57.478;12.066;2022-08-07T19:35:13;1.30;;;1.23;;
40995;SDS011;26723;57.478;12.066;2022-08-07T19:38:29;1.20;;;1.10;;
40995;SDS011;26723;57.478;12.066;2022-08-07T19:41:58;1.30;;;1.20;;
40995;SDS011;26723;57.478;12.066;2022-08-07T19:45:34;1.23;;;1.13;;
40995;SDS011;26723;57.478;12.066;2022-08-07T19:49:07;0.80;;;0.80;;
40995;SDS011;26723;57.478;12.066;2022-08-07T19:52:24;1.23;;;0.85;;
40995;SDS011;26723;57.478;12.066;2022-08-07T19:55:35;1.02;;;1.00;;
40995;SDS011;26723;57.478;12.066;2022-08-07T19:59:06;1.15;;;1.15;;
40995;SDS011;26723;57.478;12.066;2022-08-07T20:02:47;1.15;;;1.08;;
40995;SDS011;26723;57.478;12.066;2022-08-07T20:05:59;2.35;;;1.00;;